sensor_id;sensor_type;location;lat;lon;timestamp;temperature;humidity
1221;DHT22;600;48.044;7.878;2022-12-18T00:00:39;-0.90;99.90
1221;DHT22;600;48.044;7.878;2022-12-18T00:03:06;-0.90;99.90
1221;DHT22;600;48.044;7.878;2022-12-18T00:05:33;-0.90;99.90
1221;DHT22;600;48.044;7.878;2022-12-18T00:08:00;-0.90;99.90
1221;DHT22;600;48.044;7.878;2022-12-18T00:10:29;-0.90;99.90
1221;DHT22;600;48.044;7.878;2022-12-18T00:12:56;-0.90;99.90
1221;DHT22;600;48.044;7.878;2022-12-18T00:15:22;-0.90;99.90
1221;DHT22;600;48.044;7.878;2022-12-18T00:17:49;-1.00;99.90
1221;DHT22;600;48.044;7.878;2022-12-18T00:20:16;-1.00;99.90
1221;DHT22;600;48.044;7.878;2022-12-18T00:22:47;-1.00;99.90
1221;DHT22;600;48.044;7.878;2022-12-18T00:25:13;-1.00;99.90
1221;DHT22;600;48.044;7.878;2022-12-18T00:27:41;-1.00;99.90
1221;DHT22;600;48.044;7.878;2022-12-18T00:30:09;-1.00;99.90
1221;DHT22;600;48.044;7.878;2022-12-18T00:32:36;-1.00;99.90
1221;DHT22;600;48.044;7.878;2022-12-18T00:35:04;-1.00;99.90
1221;DHT22;600;48.044;7.878;2022-12-18T00:37:31;-1.00;99.90
1221;DHT22;600;48.044;7.878;2022-12-18T00:39:59;-1.10;99.90
1221;DHT22;600;48.044;7.878;2022-12-18T00:42:26;-1.10;99.90
1221;DHT22;600;48.044;7.878;2022-12-18T00:45:11;-1.10;99.90
1221;DHT22;600;48.044;7.878;2022-12-18T00:47:38;-1.10;99.90
1221;DHT22;600;48.044;7.878;2022-12-18T00:50:06;-1.10;99.90
1221;DHT22;600;48.044;7.878;2022-12-18T00:52:33;-1.10;99.90
1221;DHT22;600;48.044;7.878;2022-12-18T00:54:59;-1.10;99.90
1221;DHT22;600;48.044;7.878;2022-12-18T00:57:26;-1.10;99.90
1221;DHT22;600;48.044;7.878;2022-12-18T00:59:53;-1.10;99.90
1221;DHT22;600;48.044;7.878;2022-12-18T01:02:21;-1.10;99.90
1221;DHT22;600;48.044;7.878;2022-12-18T01:04:47;-1.10;99.90
1221;DHT22;600;48.044;7.878;2022-12-18T01:07:14;-1.10;99.90
1221;DHT22;600;48.044;7.878;2022-12-18T01:09:41;-1.10;99.90
1221;DHT22;600;48.044;7.878;2022-12-18T01:12:08;-1.10;99.90
1221;DHT22;600;48.044;7.878;2022-12-18T01:14:34;-1.10;99.90
1221;DHT22;600;48.044;7.878;2022-12-18T01:17:01;-1.20;99.90
1221;DHT22;600;48.044;7.878;2022-12-18T01:19:30;-1.20;99.90
1221;DHT22;600;48.044;7.878;2022-12-18T01:21:57;-1.20;99.90
1221;DHT22;600;48.044;7.878;2022-12-18T01:24:24;-1.30;99.90
1221;DHT22;600;48.044;7.878;2022-12-18T01:26:51;-1.30;99.90
1221;DHT22;600;48.044;7.878;2022-12-18T01:29:18;-1.40;99.90
1221;DHT22;600;48.044;7.878;2022-12-18T01:31:44;-1.40;99.90
1221;DHT22;600;48.044;7.878;2022-12-18T01:34:11;-1.50;99.90
1221;DHT22;600;48.044;7.878;2022-12-18T01:36:39;-1.50;99.90
1221;DHT22;600;48.044;7.878;2022-12-18T01:39:09;-1.50;99.90
1221;DHT22;600;48.044;7.878;2022-12-18T01:41:37;-1.60;99.90
1221;DHT22;600;48.044;7.878;2022-12-18T01:44:53;-1.60;99.90
1221;DHT22;600;48.044;7.878;2022-12-18T01:47:24;-1.60;99.90
1221;DHT22;600;48.044;7.878;2022-12-18T01:49:52;-1.70;99.90
1221;DHT22;600;48.044;7.878;2022-12-18T01:52:22;-1.70;99.90
1221;DHT22;600;48.044;7.878;2022-12-18T01:54:49;-1.70;99.90
1221;DHT22;600;48.044;7.878;2022-12-18T01:57:17;-1.80;99.90
1221;DHT22;600;48.044;7.878;2022-12-18T01:59:45;-1.80;99.90
1221;DHT22;600;48.044;7.878;2022-12-18T02:02:14;-1.80;99.90
1221;DHT22;600;48.044;7.878;2022-12-18T02:04:42;-1.80;99.90
1221;DHT22;600;48.044;7.878;2022-12-18T02:07:13;-1.80;99.90
1221;DHT22;600;48.044;7.878;2022-12-18T02:09:47;-1.90;99.90
1221;DHT22;600;48.044;7.878;2022-12-18T02:12:19;-1.80;99.90
1221;DHT22;600;48.044;7.878;2022-12-18T02:14:52;-1.90;99.90
1221;DHT22;600;48.044;7.878;2022-12-18T02:17:22;-1.90;99.90
1221;DHT22;600;48.044;7.878;2022-12-18T02:20:02;-1.90;99.90
1221;DHT22;600;48.044;7.878;2022-12-18T02:22:38;-1.90;99.90
1221;DHT22;600;48.044;7.878;2022-12-18T02:25:16;-1.90;99.90
1221;DHT22;600;48.044;7.878;2022-12-18T02:27:49;-1.90;99.90
1221;DHT22;600;48.044;7.878;2022-12-18T02:30:17;-1.80;99.90
1221;DHT22;600;48.044;7.878;2022-12-18T02:32:48;-1.80;99.90
1221;DHT22;600;48.044;7.878;2022-12-18T02:35:20;-1.80;99.90
1221;DHT22;600;48.044;7.878;2022-12-18T02:37:48;-1.80;99.90
1221;DHT22;600;48.044;7.878;2022-12-18T02:40:17;-1.80;99.90
1221;DHT22;600;48.044;7.878;2022-12-18T02:42:45;-1.80;99.90
1221;DHT22;600;48.044;7.878;2022-12-18T02:45:13;-1.80;99.90
1221;DHT22;600;48.044;7.878;2022-12-18T02:47:43;-1.80;99.90
1221;DHT22;600;48.044;7.878;2022-12-18T02:50:16;-1.80;99.90
1221;DHT22;600;48.044;7.878;2022-12-18T02:52:53;-1.80;99.90
1221;DHT22;600;48.044;7.878;2022-12-18T02:55:32;-1.80;99.90
1221;DHT22;600;48.044;7.878;2022-12-18T02:58:05;-1.80;99.90
1221;DHT22;600;48.044;7.878;2022-12-18T03:00:42;-1.70;99.90
1221;DHT22;600;48.044;7.878;2022-12-18T03:03:14;-1.70;99.90
1221;DHT22;600;48.044;7.878;2022-12-18T03:05:47;-1.70;99.90
1221;DHT22;600;48.044;7.878;2022-12-18T03:08:19;-1.70;99.90
1221;DHT22;600;48.044;7.878;2022-12-18T03:10:53;-1.70;99.90
1221;DHT22;600;48.044;7.878;2022-12-18T03:13:31;-1.70;99.90
1221;DHT22;600;48.044;7.878;2022-12-18T03:16:01;-1.60;99.90
1221;DHT22;600;48.044;7.878;2022-12-18T03:21:55;-1.60;99.90
1221;DHT22;600;48.044;7.878;2022-12-18T03:24:24;-1.60;99.90
1221;DHT22;600;48.044;7.878;2022-12-18T03:26:54;-1.60;99.90
1221;DHT22;600;48.044;7.878;2022-12-18T03:29:31;-1.60;99.90
1221;DHT22;600;48.044;7.878;2022-12-18T03:32:05;-1.60;99.90
1221;DHT22;600;48.044;7.878;2022-12-18T03:34:37;-1.60;99.90
1221;DHT22;600;48.044;7.878;2022-12-18T03:37:05;-1.60;99.90
1221;DHT22;600;48.044;7.878;2022-12-18T03:39:33;-1.60;99.90
1221;DHT22;600;48.044;7.878;2022-12-18T03:42:05;-1.60;99.90
1221;DHT22;600;48.044;7.878;2022-12-18T03:44:38;-1.60;99.90
1221;DHT22;600;48.044;7.878;2022-12-18T03:47:14;-1.60;99.90
1221;DHT22;600;48.044;7.878;2022-12-18T03:49:47;-1.60;99.90
1221;DHT22;600;48.044;7.878;2022-12-18T03:52:20;-1.60;99.90
1221;DHT22;600;48.044;7.878;2022-12-18T03:54:47;-1.70;99.90
1221;DHT22;600;48.044;7.878;2022-12-18T03:57:18;-1.70;99.90
1221;DHT22;600;48.044;7.878;2022-12-18T03:59:47;-1.80;99.90
1221;DHT22;600;48.044;7.878;2022-12-18T04:02:17;-1.80;99.90
1221;DHT22;600;48.044;7.878;2022-12-18T04:04:44;-1.90;99.90
1221;DHT22;600;48.044;7.878;2022-12-18T04:07:13;-1.90;99.90
1221;DHT22;600;48.044;7.878;2022-12-18T04:09:41;-2.00;99.90
1221;DHT22;600;48.044;7.878;2022-12-18T04:12:10;-2.10;99.90
1221;DHT22;600;48.044;7.878;2022-12-18T04:14:37;-2.10;99.90
1221;DHT22;600;48.044;7.878;2022-12-18T04:17:03;-2.20;99.90
1221;DHT22;600;48.044;7.878;2022-12-18T04:19:31;-2.20;99.90
1221;DHT22;600;48.044;7.878;2022-12-18T04:21:58;-2.20;99.90
1221;DHT22;600;48.044;7.878;2022-12-18T04:24:25;-2.20;99.90
1221;DHT22;600;48.044;7.878;2022-12-18T04:26:52;-2.30;99.90
1221;DHT22;600;48.044;7.878;2022-12-18T04:29:18;-2.20;99.90
1221;DHT22;600;48.044;7.878;2022-12-18T04:31:45;-2.30;99.90
1221;DHT22;600;48.044;7.878;2022-12-18T04:34:12;-2.30;99.90
1221;DHT22;600;48.044;7.878;2022-12-18T04:36:40;-2.40;99.90
1221;DHT22;600;48.044;7.878;2022-12-18T04:39:07;-2.40;99.90
1221;DHT22;600;48.044;7.878;2022-12-18T04:41:33;-2.50;99.90
1221;DHT22;600;48.044;7.878;2022-12-18T04:44:00;-2.50;99.90
1221;DHT22;600;48.044;7.878;2022-12-18T04:46:27;-2.60;99.90
1221;DHT22;600;48.044;7.878;2022-12-18T04:48:54;-2.60;99.90
1221;DHT22;600;48.044;7.878;2022-12-18T04:51:21;-2.70;99.90
1221;DHT22;600;48.044;7.878;2022-12-18T04:53:49;-2.80;99.90
1221;DHT22;600;48.044;7.878;2022-12-18T04:56:16;-2.80;99.90
1221;DHT22;600;48.044;7.878;2022-12-18T04:58:44;-2.90;99.90
1221;DHT22;600;48.044;7.878;2022-12-18T05:01:12;-3.00;99.90
1221;DHT22;600;48.044;7.878;2022-12-18T05:03:39;-3.00;99.90
1221;DHT22;600;48.044;7.878;2022-12-18T05:06:06;-3.00;99.90
1221;DHT22;600;48.044;7.878;2022-12-18T05:08:33;-3.00;99.90
1221;DHT22;600;48.044;7.878;2022-12-18T05:11:03;-3.00;99.90
1221;DHT22;600;48.044;7.878;2022-12-18T05:13:30;-3.00;99.90
1221;DHT22;600;48.044;7.878;2022-12-18T05:15:57;-3.00;99.90
1221;DHT22;600;48.044;7.878;2022-12-18T05:18:24;-3.00;99.90
1221;DHT22;600;48.044;7.878;2022-12-18T05:20:52;-3.10;99.90
1221;DHT22;600;48.044;7.878;2022-12-18T05:23:20;-3.10;99.90
1221;DHT22;600;48.044;7.878;2022-12-18T05:25:50;-3.10;99.90
1221;DHT22;600;48.044;7.878;2022-12-18T05:28:18;-3.10;99.90
1221;DHT22;600;48.044;7.878;2022-12-18T05:30:48;-3.20;99.90
1221;DHT22;600;48.044;7.878;2022-12-18T05:33:16;-3.30;99.90
1221;DHT22;600;48.044;7.878;2022-12-18T05:35:43;-3.30;99.90
1221;DHT22;600;48.044;7.878;2022-12-18T05:38:09;-3.40;99.90
1221;DHT22;600;48.044;7.878;2022-12-18T05:40:36;-3.40;99.90
1221;DHT22;600;48.044;7.878;2022-12-18T05:43:04;-3.50;99.90
1221;DHT22;600;48.044;7.878;2022-12-18T05:45:32;-3.50;99.90
1221;DHT22;600;48.044;7.878;2022-12-18T05:48:00;-4.20;99.90
1221;DHT22;600;48.044;7.878;2022-12-18T05:50:26;-4.60;99.90
1221;DHT22;600;48.044;7.878;2022-12-18T05:52:53;-4.50;99.90
1221;DHT22;600;48.044;7.878;2022-12-18T05:55:20;-4.20;99.90
1221;DHT22;600;48.044;7.878;2022-12-18T05:57:46;-3.90;99.90
1221;DHT22;600;48.044;7.878;2022-12-18T06:00:14;-3.70;99.90
1221;DHT22;600;48.044;7.878;2022-12-18T06:02:46;-3.50;99.90
1221;DHT22;600;48.044;7.878;2022-12-18T06:05:13;-3.30;99.90
1221;DHT22;600;48.044;7.878;2022-12-18T06:07:40;-3.20;99.90
1221;DHT22;600;48.044;7.878;2022-12-18T06:10:07;-3.10;99.90
1221;DHT22;600;48.044;7.878;2022-12-18T06:12:34;-3.00;99.90
1221;DHT22;600;48.044;7.878;2022-12-18T06:15:01;-2.90;99.90
1221;DHT22;600;48.044;7.878;2022-12-18T06:17:28;-2.80;99.90
1221;DHT22;600;48.044;7.878;2022-12-18T06:19:56;-2.70;99.90
1221;DHT22;600;48.044;7.878;2022-12-18T06:22:23;-2.70;99.90
1221;DHT22;600;48.044;7.878;2022-12-18T06:24:50;-2.60;99.90
1221;DHT22;600;48.044;7.878;2022-12-18T06:27:17;-2.60;99.90
1221;DHT22;600;48.044;7.878;2022-12-18T06:29:44;-2.50;99.90
1221;DHT22;600;48.044;7.878;2022-12-18T06:32:11;-2.50;99.90
1221;DHT22;600;48.044;7.878;2022-12-18T06:34:37;-3.20;99.90
1221;DHT22;600;48.044;7.878;2022-12-18T06:40:27;-4.00;99.90
1221;DHT22;600;48.044;7.878;2022-12-18T06:42:54;-4.30;99.90
1221;DHT22;600;48.044;7.878;2022-12-18T06:45:21;-4.20;99.90
1221;DHT22;600;48.044;7.878;2022-12-18T06:47:47;-3.90;99.90
1221;DHT22;600;48.044;7.878;2022-12-18T06:50:14;-3.60;99.90
1221;DHT22;600;48.044;7.878;2022-12-18T06:52:41;-3.40;99.90
1221;DHT22;600;48.044;7.878;2022-12-18T06:55:10;-3.20;99.90
1221;DHT22;600;48.044;7.878;2022-12-18T06:57:38;-3.10;99.90
1221;DHT22;600;48.044;7.878;2022-12-18T07:00:06;-2.90;99.90
1221;DHT22;600;48.044;7.878;2022-12-18T07:02:33;-2.80;99.90
1221;DHT22;600;48.044;7.878;2022-12-18T07:05:01;-2.70;99.90
1221;DHT22;600;48.044;7.878;2022-12-18T07:07:27;-2.70;99.90
1221;DHT22;600;48.044;7.878;2022-12-18T07:09:54;-2.60;99.90
1221;DHT22;600;48.044;7.878;2022-12-18T07:12:21;-2.60;99.90
1221;DHT22;600;48.044;7.878;2022-12-18T07:14:49;-2.50;99.90
1221;DHT22;600;48.044;7.878;2022-12-18T07:17:15;-2.50;99.90
1221;DHT22;600;48.044;7.878;2022-12-18T07:19:42;-2.50;99.90
1221;DHT22;600;48.044;7.878;2022-12-18T07:22:09;-2.50;99.90
1221;DHT22;600;48.044;7.878;2022-12-18T07:24:36;-2.50;99.90
1221;DHT22;600;48.044;7.878;2022-12-18T07:27:02;-2.50;99.90
1221;DHT22;600;48.044;7.878;2022-12-18T07:29:29;-2.60;99.90
1221;DHT22;600;48.044;7.878;2022-12-18T07:31:57;-2.60;99.90
1221;DHT22;600;48.044;7.878;2022-12-18T07:34:24;-2.60;99.90
1221;DHT22;600;48.044;7.878;2022-12-18T07:36:51;-2.60;99.90
1221;DHT22;600;48.044;7.878;2022-12-18T07:39:18;-2.60;99.90
1221;DHT22;600;48.044;7.878;2022-12-18T07:41:44;-2.60;99.90
1221;DHT22;600;48.044;7.878;2022-12-18T07:44:32;-2.60;99.90
1221;DHT22;600;48.044;7.878;2022-12-18T07:47:00;-2.60;99.90
1221;DHT22;600;48.044;7.878;2022-12-18T07:49:27;-2.60;99.90
1221;DHT22;600;48.044;7.878;2022-12-18T07:51:54;-2.60;99.90
1221;DHT22;600;48.044;7.878;2022-12-18T07:54:21;-2.60;99.90
1221;DHT22;600;48.044;7.878;2022-12-18T07:56:48;-2.60;99.90
1221;DHT22;600;48.044;7.878;2022-12-18T07:59:16;-2.60;99.90
1221;DHT22;600;48.044;7.878;2022-12-18T08:01:42;-2.60;99.90
1221;DHT22;600;48.044;7.878;2022-12-18T08:07:33;-2.50;99.90
1221;DHT22;600;48.044;7.878;2022-12-18T08:09:59;-2.60;99.90
1221;DHT22;600;48.044;7.878;2022-12-18T08:12:26;-2.60;99.90
1221;DHT22;600;48.044;7.878;2022-12-18T08:14:53;-2.60;99.90
1221;DHT22;600;48.044;7.878;2022-12-18T08:17:20;-2.70;99.90
1221;DHT22;600;48.044;7.878;2022-12-18T08:19:46;-2.70;99.90
1221;DHT22;600;48.044;7.878;2022-12-18T08:22:13;-2.70;99.90
1221;DHT22;600;48.044;7.878;2022-12-18T08:24:41;-2.80;99.90
1221;DHT22;600;48.044;7.878;2022-12-18T08:27:08;-2.80;99.90
1221;DHT22;600;48.044;7.878;2022-12-18T08:29:35;-2.80;99.90
1221;DHT22;600;48.044;7.878;2022-12-18T08:32:01;-2.80;99.90
1221;DHT22;600;48.044;7.878;2022-12-18T08:34:28;-2.80;99.90
1221;DHT22;600;48.044;7.878;2022-12-18T08:36:55;-2.80;99.90
1221;DHT22;600;48.044;7.878;2022-12-18T08:39:22;-2.70;99.90
1221;DHT22;600;48.044;7.878;2022-12-18T08:41:50;-2.70;99.90
1221;DHT22;600;48.044;7.878;2022-12-18T08:44:30;-2.70;99.90
1221;DHT22;600;48.044;7.878;2022-12-18T08:47:07;-2.60;99.90
1221;DHT22;600;48.044;7.878;2022-12-18T08:49:38;-2.60;99.90
1221;DHT22;600;48.044;7.878;2022-12-18T08:52:08;-2.50;99.90
1221;DHT22;600;48.044;7.878;2022-12-18T08:54:35;-2.50;99.90
1221;DHT22;600;48.044;7.878;2022-12-18T08:57:03;-2.40;99.90
1221;DHT22;600;48.044;7.878;2022-12-18T08:59:30;-2.30;99.90
1221;DHT22;600;48.044;7.878;2022-12-18T09:01:56;-2.30;99.90
1221;DHT22;600;48.044;7.878;2022-12-18T09:04:23;-2.20;99.90
1221;DHT22;600;48.044;7.878;2022-12-18T09:06:50;-2.20;99.90
1221;DHT22;600;48.044;7.878;2022-12-18T09:09:17;-2.10;99.90
1221;DHT22;600;48.044;7.878;2022-12-18T09:11:43;-2.10;99.90
1221;DHT22;600;48.044;7.878;2022-12-18T09:17:33;-2.00;99.90
1221;DHT22;600;48.044;7.878;2022-12-18T09:20:00;-2.00;99.90
1221;DHT22;600;48.044;7.878;2022-12-18T09:22:27;-1.90;99.90
1221;DHT22;600;48.044;7.878;2022-12-18T09:24:54;-1.90;99.90
1221;DHT22;600;48.044;7.878;2022-12-18T09:30:44;-1.80;99.90
1221;DHT22;600;48.044;7.878;2022-12-18T09:33:13;-1.80;99.90
1221;DHT22;600;48.044;7.878;2022-12-18T09:35:41;-1.80;99.90
1221;DHT22;600;48.044;7.878;2022-12-18T09:38:11;-1.70;99.90
1221;DHT22;600;48.044;7.878;2022-12-18T09:40:42;-1.70;99.90
1221;DHT22;600;48.044;7.878;2022-12-18T09:43:14;-1.70;99.90
1221;DHT22;600;48.044;7.878;2022-12-18T09:45:44;-1.60;99.90
1221;DHT22;600;48.044;7.878;2022-12-18T09:48:19;-1.60;99.90
1221;DHT22;600;48.044;7.878;2022-12-18T09:50:48;-1.60;99.90
1221;DHT22;600;48.044;7.878;2022-12-18T09:53:31;-1.50;99.90
1221;DHT22;600;48.044;7.878;2022-12-18T09:56:00;-1.50;99.90
1221;DHT22;600;48.044;7.878;2022-12-18T09:58:31;-1.40;99.90
1221;DHT22;600;48.044;7.878;2022-12-18T10:00:59;-1.40;99.90
1221;DHT22;600;48.044;7.878;2022-12-18T10:03:27;-1.40;99.90
1221;DHT22;600;48.044;7.878;2022-12-18T10:09:24;-1.30;99.90
1221;DHT22;600;48.044;7.878;2022-12-18T10:11:56;-1.30;99.90
1221;DHT22;600;48.044;7.878;2022-12-18T10:17:11;-1.20;99.90
1221;DHT22;600;48.044;7.878;2022-12-18T10:19:43;-1.20;99.90
1221;DHT22;600;48.044;7.878;2022-12-18T10:22:21;-1.10;99.90
1221;DHT22;600;48.044;7.878;2022-12-18T10:24:55;-1.10;99.90
1221;DHT22;600;48.044;7.878;2022-12-18T10:30:04;-0.90;99.90
1221;DHT22;600;48.044;7.878;2022-12-18T10:35:15;-0.80;99.90
1221;DHT22;600;48.044;7.878;2022-12-18T10:40:16;-0.80;99.90
1221;DHT22;600;48.044;7.878;2022-12-18T10:42:43;-0.80;99.90
1221;DHT22;600;48.044;7.878;2022-12-18T10:47:34;-0.70;99.90
1221;DHT22;600;48.044;7.878;2022-12-18T10:50:02;-0.70;99.90
1221;DHT22;600;48.044;7.878;2022-12-18T10:52:29;-0.60;99.90
1221;DHT22;600;48.044;7.878;2022-12-18T10:54:58;-0.60;99.90
1221;DHT22;600;48.044;7.878;2022-12-18T10:57:32;-0.50;99.90
1221;DHT22;600;48.044;7.878;2022-12-18T11:00:18;-0.50;99.90
1221;DHT22;600;48.044;7.878;2022-12-18T11:02:48;-0.50;99.90
1221;DHT22;600;48.044;7.878;2022-12-18T11:05:29;-0.40;99.90
1221;DHT22;600;48.044;7.878;2022-12-18T11:07:58;-0.40;99.90
1221;DHT22;600;48.044;7.878;2022-12-18T11:10:29;-0.30;99.90
1221;DHT22;600;48.044;7.878;2022-12-18T11:13:12;-0.30;99.90
1221;DHT22;600;48.044;7.878;2022-12-18T11:15:40;-0.20;99.90
1221;DHT22;600;48.044;7.878;2022-12-18T11:18:16;-0.20;99.90
1221;DHT22;600;48.044;7.878;2022-12-18T11:20:50;-0.10;99.90
1221;DHT22;600;48.044;7.878;2022-12-18T11:23:19;-0.10;99.90
1221;DHT22;600;48.044;7.878;2022-12-18T11:25:52;-0.10;99.90
1221;DHT22;600;48.044;7.878;2022-12-18T11:28:34;0.00;99.90
1221;DHT22;600;48.044;7.878;2022-12-18T11:31:23;0.00;99.90
1221;DHT22;600;48.044;7.878;2022-12-18T11:33:57;0.10;99.90
1221;DHT22;600;48.044;7.878;2022-12-18T11:36:27;0.10;99.90
1221;DHT22;600;48.044;7.878;2022-12-18T11:38:55;0.20;99.90
1221;DHT22;600;48.044;7.878;2022-12-18T11:41:28;0.20;99.90
1221;DHT22;600;48.044;7.878;2022-12-18T11:44:14;0.30;99.90
1221;DHT22;600;48.044;7.878;2022-12-18T11:46:47;0.40;99.90
1221;DHT22;600;48.044;7.878;2022-12-18T11:49:22;0.40;99.90
1221;DHT22;600;48.044;7.878;2022-12-18T11:51:51;0.50;99.90
1221;DHT22;600;48.044;7.878;2022-12-18T11:54:20;0.50;99.90
1221;DHT22;600;48.044;7.878;2022-12-18T11:56:49;0.60;99.90
1221;DHT22;600;48.044;7.878;2022-12-18T11:59:27;0.60;99.90
1221;DHT22;600;48.044;7.878;2022-12-18T12:01:59;0.70;99.90
1221;DHT22;600;48.044;7.878;2022-12-18T12:04:46;0.70;99.90
1221;DHT22;600;48.044;7.878;2022-12-18T12:07:24;0.80;99.90
1221;DHT22;600;48.044;7.878;2022-12-18T12:10:03;0.80;99.90
1221;DHT22;600;48.044;7.878;2022-12-18T12:12:39;0.90;99.90
1221;DHT22;600;48.044;7.878;2022-12-18T12:15:20;0.90;99.90
1221;DHT22;600;48.044;7.878;2022-12-18T12:17:54;0.90;99.90
1221;DHT22;600;48.044;7.878;2022-12-18T12:20:27;1.00;99.90
1221;DHT22;600;48.044;7.878;2022-12-18T12:23:02;1.00;99.90
1221;DHT22;600;48.044;7.878;2022-12-18T12:25:37;1.00;99.90
1221;DHT22;600;48.044;7.878;2022-12-18T12:28:15;1.00;99.90
1221;DHT22;600;48.044;7.878;2022-12-18T12:30:53;1.10;99.90
1221;DHT22;600;48.044;7.878;2022-12-18T12:33:32;1.10;99.90
1221;DHT22;600;48.044;7.878;2022-12-18T12:36:08;1.20;99.90
1221;DHT22;600;48.044;7.878;2022-12-18T12:38:41;1.20;99.90
1221;DHT22;600;48.044;7.878;2022-12-18T12:41:14;1.30;99.90
1221;DHT22;600;48.044;7.878;2022-12-18T12:43:59;1.30;99.90
1221;DHT22;600;48.044;7.878;2022-12-18T12:46:26;1.40;99.90
1221;DHT22;600;48.044;7.878;2022-12-18T12:48:55;1.50;99.90
1221;DHT22;600;48.044;7.878;2022-12-18T12:51:25;1.50;99.90
1221;DHT22;600;48.044;7.878;2022-12-18T12:53:53;1.60;99.90
1221;DHT22;600;48.044;7.878;2022-12-18T12:56:21;1.60;99.90
1221;DHT22;600;48.044;7.878;2022-12-18T12:58:55;1.60;99.90
1221;DHT22;600;48.044;7.878;2022-12-18T13:01:28;1.60;99.90
1221;DHT22;600;48.044;7.878;2022-12-18T13:04:07;1.70;99.90
1221;DHT22;600;48.044;7.878;2022-12-18T13:06:43;1.70;99.90
1221;DHT22;600;48.044;7.878;2022-12-18T13:09:12;1.70;99.90
1221;DHT22;600;48.044;7.878;2022-12-18T13:11:40;1.70;99.90
1221;DHT22;600;48.044;7.878;2022-12-18T13:14:29;1.80;99.90
1221;DHT22;600;48.044;7.878;2022-12-18T13:17:17;1.80;99.90
1221;DHT22;600;48.044;7.878;2022-12-18T13:19:51;1.90;99.90
1221;DHT22;600;48.044;7.878;2022-12-18T13:22:24;1.90;99.90
1221;DHT22;600;48.044;7.878;2022-12-18T13:24:51;1.90;99.90
1221;DHT22;600;48.044;7.878;2022-12-18T13:27:51;1.90;99.90
1221;DHT22;600;48.044;7.878;2022-12-18T13:33:47;2.00;99.90
1221;DHT22;600;48.044;7.878;2022-12-18T13:36:27;2.00;99.90
1221;DHT22;600;48.044;7.878;2022-12-18T13:39:24;2.00;99.90
1221;DHT22;600;48.044;7.878;2022-12-18T13:41:53;2.00;99.90
1221;DHT22;600;48.044;7.878;2022-12-18T13:44:25;2.10;99.90
1221;DHT22;600;48.044;7.878;2022-12-18T13:46:55;2.10;99.90
1221;DHT22;600;48.044;7.878;2022-12-18T13:49:24;2.10;99.90
1221;DHT22;600;48.044;7.878;2022-12-18T13:51:53;2.10;99.90
1221;DHT22;600;48.044;7.878;2022-12-18T13:54:24;2.10;99.90
1221;DHT22;600;48.044;7.878;2022-12-18T13:56:51;2.10;99.90
1221;DHT22;600;48.044;7.878;2022-12-18T13:59:20;2.10;99.90
1221;DHT22;600;48.044;7.878;2022-12-18T14:01:50;2.10;99.90
1221;DHT22;600;48.044;7.878;2022-12-18T14:04:21;2.10;99.90
1221;DHT22;600;48.044;7.878;2022-12-18T14:06:50;2.20;99.90
1221;DHT22;600;48.044;7.878;2022-12-18T14:09:19;2.20;99.90
1221;DHT22;600;48.044;7.878;2022-12-18T14:11:50;2.20;99.90
1221;DHT22;600;48.044;7.878;2022-12-18T14:14:17;2.20;99.90
1221;DHT22;600;48.044;7.878;2022-12-18T14:16:45;2.20;99.90
1221;DHT22;600;48.044;7.878;2022-12-18T14:19:14;2.30;99.90
1221;DHT22;600;48.044;7.878;2022-12-18T14:21:46;2.30;99.90
1221;DHT22;600;48.044;7.878;2022-12-18T14:24:14;2.30;99.90
1221;DHT22;600;48.044;7.878;2022-12-18T14:26:42;2.30;99.90
1221;DHT22;600;48.044;7.878;2022-12-18T14:29:23;2.30;99.90
1221;DHT22;600;48.044;7.878;2022-12-18T14:32:07;2.30;99.90
1221;DHT22;600;48.044;7.878;2022-12-18T14:34:36;2.30;99.90
1221;DHT22;600;48.044;7.878;2022-12-18T14:37:02;2.30;99.90
1221;DHT22;600;48.044;7.878;2022-12-18T14:39:30;2.30;99.90
1221;DHT22;600;48.044;7.878;2022-12-18T14:41:56;2.30;99.90
1221;DHT22;600;48.044;7.878;2022-12-18T14:44:25;2.30;99.90
1221;DHT22;600;48.044;7.878;2022-12-18T14:46:52;2.30;99.90
1221;DHT22;600;48.044;7.878;2022-12-18T14:49:22;2.30;99.90
1221;DHT22;600;48.044;7.878;2022-12-18T14:51:51;2.30;99.90
1221;DHT22;600;48.044;7.878;2022-12-18T14:54:19;2.30;99.90
1221;DHT22;600;48.044;7.878;2022-12-18T14:56:47;2.30;99.90
1221;DHT22;600;48.044;7.878;2022-12-18T14:59:17;2.30;99.90
1221;DHT22;600;48.044;7.878;2022-12-18T15:01:47;2.30;99.90
1221;DHT22;600;48.044;7.878;2022-12-18T15:04:25;2.20;99.90
1221;DHT22;600;48.044;7.878;2022-12-18T15:07:13;2.20;99.90
1221;DHT22;600;48.044;7.878;2022-12-18T15:09:42;2.20;99.90
1221;DHT22;600;48.044;7.878;2022-12-18T15:12:25;2.20;99.90
1221;DHT22;600;48.044;7.878;2022-12-18T15:14:52;2.20;99.90
1221;DHT22;600;48.044;7.878;2022-12-18T15:17:22;2.20;99.90
1221;DHT22;600;48.044;7.878;2022-12-18T15:19:51;2.10;99.90
1221;DHT22;600;48.044;7.878;2022-12-18T15:22:25;2.10;99.90
1221;DHT22;600;48.044;7.878;2022-12-18T15:24:52;2.10;99.90
1221;DHT22;600;48.044;7.878;2022-12-18T15:27:29;2.10;99.90
1221;DHT22;600;48.044;7.878;2022-12-18T15:30:03;2.00;99.90
1221;DHT22;600;48.044;7.878;2022-12-18T15:32:43;2.00;99.90
1221;DHT22;600;48.044;7.878;2022-12-18T15:35:16;2.00;99.90
1221;DHT22;600;48.044;7.878;2022-12-18T15:37:43;2.00;99.90
1221;DHT22;600;48.044;7.878;2022-12-18T15:40:13;2.10;99.90
1221;DHT22;600;48.044;7.878;2022-12-18T15:42:40;2.00;99.90
1221;DHT22;600;48.044;7.878;2022-12-18T15:45:25;2.00;99.90
1221;DHT22;600;48.044;7.878;2022-12-18T15:51:17;2.10;99.90
1221;DHT22;600;48.044;7.878;2022-12-18T15:53:46;2.10;99.90
1221;DHT22;600;48.044;7.878;2022-12-18T15:56:14;2.10;99.90
1221;DHT22;600;48.044;7.878;2022-12-18T16:02:21;2.10;99.90
1221;DHT22;600;48.044;7.878;2022-12-18T16:04:49;2.10;99.90
1221;DHT22;600;48.044;7.878;2022-12-18T16:07:18;2.00;99.90
1221;DHT22;600;48.044;7.878;2022-12-18T16:09:44;2.00;99.90
1221;DHT22;600;48.044;7.878;2022-12-18T16:15:33;1.90;99.90
1221;DHT22;600;48.044;7.878;2022-12-18T16:18:00;1.80;99.90
1221;DHT22;600;48.044;7.878;2022-12-18T16:20:27;1.70;99.90
1221;DHT22;600;48.044;7.878;2022-12-18T16:22:55;1.70;99.90
1221;DHT22;600;48.044;7.878;2022-12-18T16:25:23;1.60;99.90
1221;DHT22;600;48.044;7.878;2022-12-18T16:27:51;1.60;99.90
1221;DHT22;600;48.044;7.878;2022-12-18T16:30:21;1.50;99.90
1221;DHT22;600;48.044;7.878;2022-12-18T16:32:48;1.50;99.90
1221;DHT22;600;48.044;7.878;2022-12-18T16:35:16;1.50;99.90
1221;DHT22;600;48.044;7.878;2022-12-18T16:37:43;1.50;99.90
1221;DHT22;600;48.044;7.878;2022-12-18T16:40:13;1.50;99.90
1221;DHT22;600;48.044;7.878;2022-12-18T16:42:41;1.40;99.90
1221;DHT22;600;48.044;7.878;2022-12-18T16:45:10;1.40;99.90
1221;DHT22;600;48.044;7.878;2022-12-18T16:47:37;1.40;99.90
1221;DHT22;600;48.044;7.878;2022-12-18T16:50:05;1.40;99.90
1221;DHT22;600;48.044;7.878;2022-12-18T16:52:32;1.40;99.90
1221;DHT22;600;48.044;7.878;2022-12-18T16:54:59;1.30;99.90
1221;DHT22;600;48.044;7.878;2022-12-18T16:57:27;1.30;99.90
1221;DHT22;600;48.044;7.878;2022-12-18T16:59:54;1.30;99.90
1221;DHT22;600;48.044;7.878;2022-12-18T17:02:23;1.30;99.90
1221;DHT22;600;48.044;7.878;2022-12-18T17:04:52;1.30;99.90
1221;DHT22;600;48.044;7.878;2022-12-18T17:07:19;1.30;99.90
1221;DHT22;600;48.044;7.878;2022-12-18T17:09:45;1.30;99.90
1221;DHT22;600;48.044;7.878;2022-12-18T17:12:13;1.30;99.90
1221;DHT22;600;48.044;7.878;2022-12-18T17:14:41;1.30;99.90
1221;DHT22;600;48.044;7.878;2022-12-18T17:17:07;1.30;99.90
1221;DHT22;600;48.044;7.878;2022-12-18T17:19:34;1.30;99.90
1221;DHT22;600;48.044;7.878;2022-12-18T17:22:01;1.30;99.90
1221;DHT22;600;48.044;7.878;2022-12-18T17:24:29;1.30;99.90
1221;DHT22;600;48.044;7.878;2022-12-18T17:26:56;1.30;99.90
1221;DHT22;600;48.044;7.878;2022-12-18T17:29:23;1.30;99.90